Time;durP1;ratioP1;P1;durP2;ratioP2;P2;SDS_P1;SDS_P2;PMS_P1;PMS_P2;Temp;Humidity;BMP_temperature;BMP_pressure;BME280_temperature;BME280_humidity;BME280_pressure;Samples;Min_cycle;Max_cycle;Signal;HPM_P1;HPM_P2
2023/05/07 00:00:18;;;;;;;5.28;4.45;;;16.30;88.70;;;;;;5053264;28;20052;-70
2023/05/07 00:02:45;;;;;;;5.75;4.55;;;16.30;88.90;;;;;;5053369;28;20414;-70
2023/05/07 00:05:10;;;;;;;6.63;4.68;;;16.30;88.80;;;;;;5053244;28;20025;-69
2023/05/07 00:07:36;;;;;;;7.20;5.30;;;16.30;88.90;;;;;;5053006;28;20120;-70
2023/05/07 00:10:03;;;;;;;6.80;5.32;;;16.20;88.70;;;;;;5051862;28;20487;-70
2023/05/07 00:12:31;;;;;;;9.07;5.40;;;16.20;88.70;;;;;;5053174;28;20075;-70
2023/05/07 00:14:57;;;;;;;7.47;5.65;;;16.20;88.90;;;;;;5051663;28;20016;-70
2023/05/07 00:17:23;;;;;;;7.53;4.95;;;16.20;88.80;;;;;;5051851;28;20071;-69
2023/05/07 00:19:48;;;;;;;9.68;6.80;;;16.20;88.70;;;;;;5052194;28;20529;-70
2023/05/07 00:22:14;;;;;;;6.88;5.50;;;16.20;88.50;;;;;;5052653;28;20172;-70
2023/05/07 00:24:39;;;;;;;7.95;6.30;;;16.20;88.40;;;;;;5052515;28;20134;-70
2023/05/07 00:27:05;;;;;;;8.70;6.63;;;16.20;88.50;;;;;;5052770;28;20039;-68
2023/05/07 00:29:30;;;;;;;7.07;6.05;;;16.20;88.50;;;;;;5030654;28;20061;-70
2023/05/07 00:31:56;;;;;;;7.03;5.85;;;16.20;88.60;;;;;;5048562;28;20388;-69
2023/05/07 00:34:22;;;;;;;8.45;6.22;;;16.10;88.70;;;;;;5052869;28;20025;-70
2023/05/07 00:36:48;;;;;;;7.45;6.10;;;16.00;89.00;;;;;;5052518;28;20021;-70
2023/05/07 00:39:13;;;;;;;6.70;5.47;;;16.00;89.40;;;;;;5051952;28;20014;-69
2023/05/07 00:41:39;;;;;;;7.53;5.63;;;16.00;89.50;;;;;;5052693;28;20025;-70
2023/05/07 00:44:04;;;;;;;8.98;6.28;;;16.00;89.60;;;;;;5052474;28;20112;-70
2023/05/07 00:46:31;;;;;;;6.38;5.50;;;16.00;89.80;;;;;;5052574;28;20100;-70
2023/05/07 00:48:57;;;;;;;7.95;5.53;;;15.90;89.70;;;;;;5045070;28;20045;-70
2023/05/07 00:51:24;;;;;;;7.93;6.00;;;16.00;89.80;;;;;;5075974;28;20045;-71
2023/05/07 00:53:50;;;;;;;8.63;6.05;;;15.90;89.90;;;;;;5034983;28;20025;-70
2023/05/07 00:56:16;;;;;;;7.40;6.35;;;15.90;90.00;;;;;;5052472;28;20017;-69
2023/05/07 00:58:42;;;;;;;6.45;5.72;;;15.90;90.10;;;;;;5051319;28;20075;-70
2023/05/07 01:01:08;;;;;;;7.60;6.80;;;15.90;90.00;;;;;;5052125;28;20147;-70
2023/05/07 01:03:33;;;;;;;8.85;7.15;;;15.80;90.10;;;;;;5034353;28;20033;-70
2023/05/07 01:06:01;;;;;;;7.25;6.47;;;15.80;90.10;;;;;;5038284;28;20111;-70
2023/05/07 01:08:29;;;;;;;7.68;6.97;;;15.80;90.10;;;;;;5043651;28;20479;-70
2023/05/07 01:10:56;;;;;;;10.73;8.45;;;15.80;90.10;;;;;;5052123;28;20671;-69
2023/05/07 01:13:22;;;;;;;7.43;6.65;;;15.80;90.20;;;;;;5050381;28;20067;-70
2023/05/07 01:15:47;;;;;;;8.25;7.18;;;15.80;90.30;;;;;;5051301;28;20472;-70
2023/05/07 01:18:13;;;;;;;8.30;7.25;;;15.70;90.20;;;;;;5051563;28;20024;-69
2023/05/07 01:20:40;;;;;;;9.77;7.55;;;15.80;90.30;;;;;;5051072;28;20025;-69
2023/05/07 01:23:06;;;;;;;9.95;8.45;;;15.70;90.20;;;;;;5048144;28;20037;-70
2023/05/07 01:25:32;;;;;;;11.75;8.48;;;15.70;90.30;;;;;;5042984;28;20028;-70
2023/05/07 01:28:00;;;;;;;9.13;7.47;;;15.70;90.30;;;;;;5051307;28;20040;-70
2023/05/07 01:30:26;;;;;;;10.45;8.70;;;15.70;90.30;;;;;;5050720;28;20024;-69
2023/05/07 01:33:00;;;;;;;12.50;9.35;;;15.70;90.40;;;;;;5051563;28;20017;-70
2023/05/07 01:35:33;;;;;;;8.48;7.50;;;15.60;90.40;;;;;;5051682;28;20071;-70
2023/05/07 01:38:00;;;;;;;10.70;8.90;;;15.60;90.40;;;;;;5050940;28;20017;-70
2023/05/07 01:40:27;;;;;;;9.43;8.43;;;15.60;90.50;;;;;;5038621;28;20017;-70
2023/05/07 01:42:54;;;;;;;8.68;7.78;;;15.70;90.40;;;;;;5051648;28;20023;-70
2023/05/07 01:45:19;;;;;;;9.05;8.15;;;15.80;90.40;;;;;;5051318;28;20094;-70
2023/05/07 01:47:45;;;;;;;11.23;9.27;;;15.70;90.30;;;;;;5050650;28;20422;-71
2023/05/07 01:50:11;;;;;;;8.95;7.85;;;15.70;90.40;;;;;;5050803;28;20028;-71
2023/05/07 01:52:40;;;;;;;12.10;9.57;;;15.70;90.40;;;;;;5051896;28;20025;-70
2023/05/07 01:55:06;;;;;;;9.40;7.90;;;15.70;90.40;;;;;;5051689;28;20100;-69
2023/05/07 01:57:32;;;;;;;8.68;7.43;;;15.70;90.30;;;;;;5050326;28;20073;-70
2023/05/07 01:59:58;;;;;;;8.10;7.25;;;15.70;90.20;;;;;;5050890;28;20104;-70
2023/05/07 02:02:23;;;;;;;9.77;8.40;;;15.70;90.10;;;;;;5051144;28;20020;-69
2023/05/07 02:04:49;;;;;;;10.43;8.05;;;15.70;90.00;;;;;;5050977;28;20025;-70
2023/05/07 02:07:14;;;;;;;10.23;8.80;;;15.80;89.80;;;;;;5049070;28;20399;-70
2023/05/07 02:09:40;;;;;;;9.88;8.15;;;15.80;89.40;;;;;;5049893;28;20033;-70
2023/05/07 02:12:05;;;;;;;10.48;7.63;;;15.80;89.20;;;;;;5049458;28;20108;-70
2023/05/07 02:14:31;;;;;;;10.20;8.38;;;15.80;88.90;;;;;;5050804;28;20070;-70
2023/05/07 02:16:57;;;;;;;8.70;7.18;;;15.80;88.60;;;;;;5049861;28;20467;-70
2023/05/07 02:19:22;;;;;;;8.85;7.20;;;15.80;88.40;;;;;;5050980;28;20468;-70
2023/05/07 02:21:48;;;;;;;9.10;6.68;;;15.80;88.80;;;;;;5050272;28;20029;-70
2023/05/07 02:24:14;;;;;;;8.07;6.63;;;15.80;88.10;;;;;;5050587;28;20476;-70
2023/05/07 02:26:40;;;;;;;10.40;8.38;;;15.90;88.00;;;;;;5050612;28;20025;-70
2023/05/07 02:29:06;;;;;;;10.00;8.10;;;15.80;88.00;;;;;;5049540;28;20399;-69
2023/05/07 02:31:33;;;;;;;8.63;7.47;;;15.80;88.20;;;;;;5050385;28;20017;-70
2023/05/07 02:33:59;;;;;;;9.55;7.38;;;15.80;88.10;;;;;;5050692;28;20025;-69
2023/05/07 02:36:26;;;;;;;9.43;7.32;;;15.80;88.20;;;;;;5050484;28;20020;-69
2023/05/07 02:38:52;;;;;;;9.15;6.97;;;15.80;88.20;;;;;;5050222;28;20021;-70
2023/05/07 02:41:17;;;;;;;8.57;7.57;;;15.80;88.20;;;;;;5050313;28;20354;-69
2023/05/07 02:43:43;;;;;;;8.80;7.13;;;15.80;88.30;;;;;;5048983;28;20039;-69
2023/05/07 02:46:09;;;;;;;8.73;7.30;;;15.70;88.40;;;;;;5050025;28;20040;-70
2023/05/07 02:48:35;;;;;;;9.55;7.85;;;15.70;88.40;;;;;;5031027;28;20579;-70
2023/05/07 02:51:01;;;;;;;7.88;6.28;;;15.70;88.40;;;;;;5050222;28;20108;-70
2023/05/07 02:53:26;;;;;;;9.43;7.53;;;15.70;88.30;;;;;;5050180;28;20017;-70
2023/05/07 02:55:53;;;;;;;7.82;6.10;;;15.70;88.20;;;;;;5044286;28;20034;-69
2023/05/07 02:58:19;;;;;;;7.85;6.45;;;15.80;88.20;;;;;;5049511;28;20021;-69
2023/05/07 03:00:45;;;;;;;9.52;7.50;;;15.80;87.90;;;;;;5050307;28;20426;-70
2023/05/07 03:03:10;;;;;;;8.95;7.00;;;15.80;87.90;;;;;;5050182;28;20075;-70
2023/05/07 03:05:36;;;;;;;9.40;6.97;;;15.80;87.70;;;;;;5049220;28;20025;-68
2023/05/07 03:08:02;;;;;;;8.60;7.18;;;15.80;87.70;;;;;;5050159;28;20365;-70
2023/05/07 03:10:28;;;;;;;8.90;7.57;;;15.80;87.80;;;;;;5050145;28;20484;-70
2023/05/07 03:12:53;;;;;;;9.02;7.75;;;15.80;87.90;;;;;;5049710;28;20025;-70
2023/05/07 03:15:19;;;;;;;10.35;8.82;;;15.70;88.10;;;;;;5050338;28;20025;-69
2023/05/07 03:17:44;;;;;;;11.55;8.32;;;15.70;88.50;;;;;;5054912;28;20039;-69
2023/05/07 03:20:10;;;;;;;10.70;8.63;;;15.60;88.80;;;;;;5053402;28;20025;-68
2023/05/07 03:22:36;;;;;;;9.30;8.30;;;15.60;89.10;;;;;;5050106;28;20484;-71
2023/05/07 03:25:01;;;;;;;11.00;9.00;;;15.60;89.20;;;;;;5050049;28;20033;-70
2023/05/07 03:27:27;;;;;;;10.75;8.40;;;15.60;89.50;;;;;;5049940;28;20021;-70
2023/05/07 03:29:52;;;;;;;10.15;7.82;;;15.50;89.50;;;;;;5035247;28;20124;-70
2023/05/07 03:32:18;;;;;;;9.75;7.43;;;15.50;89.60;;;;;;5049631;28;20275;-69
2023/05/07 03:34:43;;;;;;;8.98;7.90;;;15.50;89.70;;;;;;5049892;28;20028;-70
2023/05/07 03:37:09;;;;;;;9.45;7.88;;;15.50;89.90;;;;;;5049652;28;20024;-70
2023/05/07 03:39:35;;;;;;;10.40;8.55;;;15.50;90.00;;;;;;5049067;28;20029;-71
2023/05/07 03:42:00;;;;;;;9.30;8.18;;;15.50;90.10;;;;;;5028983;28;20025;-70
2023/05/07 03:44:26;;;;;;;10.88;9.63;;;15.40;90.20;;;;;;5049584;28;20031;-70
2023/05/07 03:46:52;;;;;;;11.00;9.13;;;15.40;90.40;;;;;;5049121;28;20096;-69
2023/05/07 03:49:17;;;;;;;12.50;11.02;;;15.30;90.60;;;;;;5031850;28;20472;-70
2023/05/07 03:51:43;;;;;;;11.02;9.50;;;15.30;90.80;;;;;;5049020;28;20496;-70
2023/05/07 03:54:08;;;;;;;12.48;10.32;;;15.30;90.90;;;;;;5049611;28;20017;-70
2023/05/07 03:56:34;;;;;;;11.48;10.27;;;15.30;90.90;;;;;;5049628;28;20428;-70
2023/05/07 03:59:01;;;;;;;14.05;11.82;;;15.30;91.20;;;;;;5049911;28;20029;-68
2023/05/07 04:01:26;;;;;;;13.73;12.10;;;15.20;91.40;;;;;;5052413;28;20021;-69
2023/05/07 04:03:52;;;;;;;15.18;10.75;;;15.20;91.40;;;;;;5053177;28;20074;-69
2023/05/07 04:06:17;;;;;;;12.60;10.30;;;15.20;91.60;;;;;;5053524;28;20529;-70
2023/05/07 04:08:43;;;;;;;11.18;9.85;;;15.20;91.60;;;;;;5052564;28;20383;-69
2023/05/07 04:11:09;;;;;;;9.98;8.73;;;15.20;91.90;;;;;;5068526;28;20601;-69
2023/05/07 04:13:34;;;;;;;12.82;11.50;;;15.20;91.60;;;;;;5052990;28;20025;-70
2023/05/07 04:16:02;;;;;;;12.05;10.80;;;15.20;91.80;;;;;;5052408;28;20813;-70
2023/05/07 04:18:28;;;;;;;12.40;11.10;;;15.20;92.00;;;;;;5045036;28;20023;-69
2023/05/07 04:20:54;;;;;;;10.93;9.82;;;15.20;92.00;;;;;;5052001;28;20511;-70
2023/05/07 04:23:19;;;;;;;13.70;12.27;;;15.20;92.10;;;;;;5052900;28;20020;-70
2023/05/07 04:25:45;;;;;;;11.38;10.18;;;15.20;92.10;;;;;;5052642;28;20076;-70
2023/05/07 04:28:11;;;;;;;12.20;11.00;;;15.20;92.20;;;;;;5052832;28;20025;-70
2023/05/07 04:30:37;;;;;;;10.63;9.52;;;15.20;92.20;;;;;;5051935;28;20025;-69
2023/05/07 04:33:02;;;;;;;12.75;11.45;;;15.20;92.30;;;;;;5053269;28;20404;-70
2023/05/07 04:35:28;;;;;;;12.65;11.35;;;15.20;92.40;;;;;;5052524;28;20021;-69
2023/05/07 04:37:53;;;;;;;13.77;11.23;;;15.20;92.50;;;;;;5052335;28;20025;-70
2023/05/07 04:40:19;;;;;;;14.10;12.70;;;15.20;92.60;;;;;;5052141;28;20105;-71
2023/05/07 04:42:45;;;;;;;13.55;12.00;;;15.20;92.70;;;;;;5052482;28;20036;-69
2023/05/07 04:45:12;;;;;;;11.57;10.27;;;15.20;92.70;;;;;;5052545;28;20263;-69
2023/05/07 04:47:38;;;;;;;13.13;11.68;;;15.10;92.80;;;;;;5051626;28;20017;-70
2023/05/07 04:50:04;;;;;;;15.45;12.85;;;15.10;92.90;;;;;;5042590;28;20085;-69
2023/05/07 04:52:29;;;;;;;12.35;11.13;;;15.20;92.90;;;;;;5052309;28;20025;-69
2023/05/07 04:54:55;;;;;;;15.52;13.93;;;15.10;93.00;;;;;;5052527;28;20035;-69
2023/05/07 04:57:21;;;;;;;13.93;12.35;;;15.10;93.10;;;;;;5051702;28;20033;-70
2023/05/07 04:59:46;;;;;;;14.00;12.50;;;15.10;93.20;;;;;;5052601;28;20309;-71
2023/05/07 05:02:12;;;;;;;13.90;12.50;;;15.10;93.40;;;;;;5053602;28;20025;-70
2023/05/07 05:04:37;;;;;;;13.30;12.00;;;15.10;93.40;;;;;;5052587;28;20025;-69
2023/05/07 05:07:03;;;;;;;14.50;13.00;;;15.10;93.40;;;;;;5051362;28;20025;-70
2023/05/07 05:09:29;;;;;;;14.32;12.82;;;15.20;93.50;;;;;;5051941;28;20056;-70
2023/05/07 05:11:55;;;;;;;17.13;14.95;;;15.10;93.60;;;;;;5051041;28;20061;-70
2023/05/07 05:14:21;;;;;;;14.30;12.75;;;15.00;93.70;;;;;;5043665;28;20048;-70
2023/05/07 05:16:46;;;;;;;13.73;12.05;;;15.10;93.90;;;;;;5051932;28;20161;-70
2023/05/07 05:19:12;;;;;;;15.32;13.55;;;15.00;94.00;;;;;;5051708;28;20036;-69
2023/05/07 05:21:37;;;;;;;14.30;12.80;;;15.00;94.10;;;;;;5051230;28;20038;-70
2023/05/07 05:24:03;;;;;;;15.02;13.43;;;15.10;94.00;;;;;;5051806;28;20020;-70
2023/05/07 05:26:29;;;;;;;15.40;13.85;;;15.10;94.00;;;;;;5052037;28;20059;-70
2023/05/07 05:28:54;;;;;;;14.43;12.93;;;15.10;94.00;;;;;;5051262;28;20384;-69
2023/05/07 05:31:21;;;;;;;15.43;13.90;;;15.10;94.40;;;;;;5052083;28;20047;-71
2023/05/07 05:33:46;;;;;;;13.73;12.30;;;15.10;94.00;;;;;;5051775;28;20017;-70
2023/05/07 05:36:13;;;;;;;13.32;11.93;;;15.10;94.00;;;;;;5051819;28;20434;-69
2023/05/07 05:38:39;;;;;;;12.27;11.15;;;15.10;94.00;;;;;;5050793;28;20013;-72
2023/05/07 05:41:05;;;;;;;12.40;11.20;;;15.10;94.00;;;;;;5051520;28;20501;-70
2023/05/07 05:43:30;;;;;;;12.02;10.82;;;15.20;94.00;;;;;;5051579;28;20051;-69
2023/05/07 05:45:56;;;;;;;12.48;11.27;;;15.20;94.00;;;;;;5051988;28;20060;-71
2023/05/07 05:48:22;;;;;;;11.57;10.45;;;15.20;93.90;;;;;;5050349;28;20025;-70
2023/05/07 05:50:48;;;;;;;11.60;10.40;;;15.20;93.80;;;;;;5051184;28;20025;-69
2023/05/07 05:53:13;;;;;;;12.82;11.55;;;15.30;93.80;;;;;;5051302;28;20035;-68
2023/05/07 05:55:39;;;;;;;15.38;12.90;;;15.30;93.70;;;;;;5051308;28;20020;-70
2023/05/07 05:58:05;;;;;;;14.55;13.05;;;15.30;93.70;;;;;;5038073;28;20094;-70
2023/05/07 06:00:31;;;;;;;11.95;10.75;;;15.30;93.70;;;;;;5050906;28;20415;-69
2023/05/07 06:02:57;;;;;;;10.88;9.77;;;15.30;93.70;;;;;;5051024;28;20040;-69
2023/05/07 06:05:23;;;;;;;12.55;11.25;;;15.40;93.70;;;;;;5050992;28;20387;-70
2023/05/07 06:07:48;;;;;;;13.45;12.15;;;15.40;93.60;;;;;;5050242;28;20490;-69
2023/05/07 06:10:14;;;;;;;12.32;11.02;;;15.30;93.60;;;;;;5050971;28;20487;-69
2023/05/07 06:12:39;;;;;;;9.48;8.48;;;15.40;93.70;;;;;;5050797;28;20014;-69
2023/05/07 06:15:05;;;;;;;13.15;11.68;;;15.50;93.60;;;;;;5050026;28;20036;-70
2023/05/07 06:17:31;;;;;;;13.80;12.30;;;15.50;93.50;;;;;;5050499;28;20033;-69
2023/05/07 06:19:57;;;;;;;13.63;12.25;;;15.40;93.50;;;;;;5050146;28;20464;-70
2023/05/07 06:22:22;;;;;;;13.80;12.40;;;15.40;93.70;;;;;;5065592;28;20021;-69
2023/05/07 06:24:48;;;;;;;13.43;12.13;;;15.40;93.50;;;;;;5050559;28;20547;-70
2023/05/07 06:27:13;;;;;;;14.35;12.85;;;15.40;93.60;;;;;;5050640;28;20397;-70
2023/05/07 06:29:39;;;;;;;14.32;12.25;;;15.40;93.60;;;;;;5049759;28;20542;-70
2023/05/07 06:32:09;;;;;;;12.60;11.40;;;15.40;93.70;;;;;;5050352;28;20260;-70
2023/05/07 06:34:35;;;;;;;14.88;13.38;;;15.40;93.80;;;;;;5050577;28;20075;-69
2023/05/07 06:37:01;;;;;;;14.27;12.88;;;15.40;93.90;;;;;;5050474;28;20025;-68
2023/05/07 06:39:26;;;;;;;14.82;13.32;;;15.50;93.80;;;;;;5042440;28;20078;-70
2023/05/07 06:41:52;;;;;;;13.77;12.35;;;15.50;93.80;;;;;;5050344;28;20025;-69
2023/05/07 06:44:17;;;;;;;15.25;13.65;;;15.60;93.80;;;;;;5050164;28;20025;-70
2023/05/07 06:46:43;;;;;;;13.35;12.05;;;15.60;93.80;;;;;;5049498;28;20029;-69
2023/05/07 06:49:08;;;;;;;16.25;14.65;;;15.70;93.70;;;;;;5040621;28;20036;-70
2023/05/07 06:51:34;;;;;;;16.60;14.88;;;15.80;93.60;;;;;;5050459;28;20025;-70
2023/05/07 06:54:00;;;;;;;18.08;16.17;;;15.70;93.50;;;;;;5048922;28;20066;-70
2023/05/07 06:56:25;;;;;;;17.42;15.27;;;15.80;93.50;;;;;;5042913;28;20112;-70
2023/05/07 06:58:51;;;;;;;18.95;15.75;;;15.70;93.50;;;;;;5049728;28;20021;-70
2023/05/07 07:01:16;;;;;;;15.60;14.00;;;15.70;93.50;;;;;;5050171;28;20027;-70
2023/05/07 07:03:42;;;;;;;15.73;14.10;;;15.80;93.50;;;;;;5049804;28;20228;-70
2023/05/07 07:06:07;;;;;;;16.05;13.35;;;15.90;93.50;;;;;;5049963;28;20024;-69
2023/05/07 07:08:34;;;;;;;18.63;16.60;;;16.00;93.30;;;;;;5049998;28;20017;-70
2023/05/07 07:11:00;;;;;;;16.38;14.63;;;16.00;93.10;;;;;;5050226;28;20028;-69
2023/05/07 07:13:25;;;;;;;16.27;14.63;;;16.00;93.20;;;;;;5049667;28;20028;-72
2023/05/07 07:15:52;;;;;;;14.70;13.20;;;16.10;93.10;;;;;;5049796;28;20032;-70
2023/05/07 07:18:18;;;;;;;18.27;15.93;;;16.20;93.00;;;;;;5049962;28;20055;-70
2023/05/07 07:20:44;;;;;;;14.85;13.23;;;16.30;92.60;;;;;;5049094;28;20029;-70
2023/05/07 07:23:09;;;;;;;16.77;14.65;;;16.40;92.50;;;;;;5049798;28;20017;-70
2023/05/07 07:25:35;;;;;;;14.90;13.35;;;16.50;92.20;;;;;;5049661;28;20037;-69
2023/05/07 07:28:01;;;;;;;17.85;16.05;;;16.60;92.10;;;;;;5049850;28;20056;-70
2023/05/07 07:30:26;;;;;;;18.13;16.17;;;16.50;91.90;;;;;;5048987;28;20017;-69
2023/05/07 07:32:52;;;;;;;16.17;14.57;;;16.60;91.80;;;;;;5049856;28;20518;-69
2023/05/07 07:35:18;;;;;;;18.17;16.10;;;16.70;91.70;;;;;;5051526;28;20045;-70
2023/05/07 07:37:43;;;;;;;17.98;15.23;;;16.60;91.40;;;;;;5052927;28;20024;-70
2023/05/07 07:40:09;;;;;;;16.77;14.25;;;16.70;91.60;;;;;;5053779;28;20094;-69
2023/05/07 07:42:35;;;;;;;16.02;14.02;;;16.70;91.30;;;;;;5053786;28;20555;-70
2023/05/07 07:45:01;;;;;;;19.25;14.88;;;16.70;91.20;;;;;;5054497;28;20104;-69
2023/05/07 07:47:26;;;;;;;17.48;14.70;;;16.70;91.30;;;;;;5053420;28;20391;-70
2023/05/07 07:49:52;;;;;;;18.17;16.27;;;16.80;91.20;;;;;;5053751;28;20108;-70
2023/05/07 07:52:18;;;;;;;15.93;14.20;;;16.90;91.10;;;;;;5035656;28;20053;-70
2023/05/07 07:54:44;;;;;;;15.63;13.15;;;17.00;91.00;;;;;;5052986;28;20029;-70
2023/05/07 07:57:10;;;;;;;16.35;14.60;;;17.00;90.90;;;;;;5053004;28;20118;-70
2023/05/07 07:59:35;;;;;;;15.77;14.07;;;17.10;90.70;;;;;;5050460;28;20059;-70
2023/05/07 08:02:01;;;;;;;16.90;14.93;;;17.10;90.50;;;;;;5053337;28;20017;-69
2023/05/07 08:04:26;;;;;;;18.08;16.08;;;17.10;90.50;;;;;;5052824;28;20021;-70
2023/05/07 08:06:54;;;;;;;13.55;11.55;;;17.10;90.50;;;;;;5053741;28;20364;-69
2023/05/07 08:09:20;;;;;;;14.25;12.75;;;17.10;90.50;;;;;;5045016;28;20022;-69
2023/05/07 08:11:45;;;;;;;18.92;15.73;;;17.10;90.50;;;;;;5053144;28;20509;-71
2023/05/07 08:14:11;;;;;;;16.40;14.68;;;17.20;90.40;;;;;;5053066;28;20029;-70
2023/05/07 08:16:37;;;;;;;16.90;13.15;;;17.10;90.20;;;;;;5053055;28;20492;-70
2023/05/07 08:19:03;;;;;;;15.00;13.40;;;17.10;90.20;;;;;;5052095;28;20017;-69
2023/05/07 08:21:28;;;;;;;15.80;13.15;;;17.20;90.20;;;;;;5052205;28;20096;-69
2023/05/07 08:23:54;;;;;;;15.13;13.52;;;17.20;89.80;;;;;;5052794;28;20032;-70
2023/05/07 08:26:20;;;;;;;16.83;15.02;;;17.30;89.50;;;;;;5052677;28;20021;-70
2023/05/07 08:28:45;;;;;;;17.92;14.40;;;17.30;89.40;;;;;;5052694;28;20032;-70
2023/05/07 08:31:11;;;;;;;16.98;14.93;;;17.30;89.00;;;;;;5051804;28;20029;-70
2023/05/07 08:33:38;;;;;;;13.18;11.30;;;17.20;88.80;;;;;;5052800;28;20047;-68
2023/05/07 08:36:04;;;;;;;15.13;13.40;;;17.30;88.90;;;;;;5052684;28;20475;-70
2023/05/07 08:38:30;;;;;;;14.82;13.05;;;17.30;88.80;;;;;;5052636;28;20391;-70
2023/05/07 08:40:55;;;;;;;14.10;12.60;;;17.40;88.70;;;;;;5052467;28;20025;-69
2023/05/07 08:43:24;;;;;;;15.70;12.52;;;17.50;88.40;;;;;;5052405;28;20387;-69
2023/05/07 08:45:54;;;;;;;13.43;12.00;;;17.50;88.20;;;;;;5052356;28;20021;-69
2023/05/07 08:48:22;;;;;;;16.10;13.77;;;17.60;88.20;;;;;;5051599;28;20629;-69
2023/05/07 08:50:47;;;;;;;12.48;10.40;;;17.60;87.80;;;;;;5052288;28;20032;-69
2023/05/07 08:53:15;;;;;;;16.85;13.18;;;17.70;87.70;;;;;;5052367;28;20365;-69
2023/05/07 08:55:40;;;;;;;14.57;12.75;;;17.80;87.50;;;;;;5051260;28;20044;-69
2023/05/07 08:58:06;;;;;;;11.98;10.68;;;17.80;86.80;;;;;;5052050;28;20018;-68
2023/05/07 09:00:35;;;;;;;12.27;9.70;;;17.80;86.60;;;;;;5050808;28;20025;-69
2023/05/07 09:03:01;;;;;;;13.55;10.88;;;17.90;86.60;;;;;;5051414;28;20056;-69
2023/05/07 09:05:27;;;;;;;14.38;10.05;;;18.00;86.30;;;;;;5051890;28;20029;-69
2023/05/07 09:07:52;;;;;;;13.70;11.98;;;18.10;86.00;;;;;;5051812;28;20365;-69
2023/05/07 09:10:18;;;;;;;11.10;9.85;;;18.10;85.10;;;;;;5051740;28;20727;-69
2023/05/07 09:12:46;;;;;;;11.63;10.25;;;18.10;85.00;;;;;;5051099;28;20440;-69
2023/05/07 09:15:12;;;;;;;10.77;9.68;;;18.10;84.50;;;;;;5048875;28;20112;-68
2023/05/07 09:17:37;;;;;;;11.43;10.02;;;18.10;84.30;;;;;;5051668;28;20424;-69
2023/05/07 09:20:05;;;;;;;12.02;9.90;;;18.20;83.90;;;;;;5050765;28;20373;-69
2023/05/07 09:22:35;;;;;;;11.63;9.68;;;18.20;84.10;;;;;;5051478;28;20438;-69
2023/05/07 09:25:01;;;;;;;12.93;10.20;;;18.30;84.20;;;;;;5051536;28;20029;-69
2023/05/07 09:27:27;;;;;;;13.00;11.60;;;18.50;84.10;;;;;;5051435;28;20036;-70
2023/05/07 09:29:52;;;;;;;14.10;10.88;;;18.50;84.20;;;;;;5050852;28;20025;-70
2023/05/07 09:32:18;;;;;;;9.77;8.65;;;18.60;84.40;;;;;;5051475;28;20039;-69
2023/05/07 09:34:44;;;;;;;11.15;9.25;;;18.90;84.50;;;;;;5051744;28;20021;-69
2023/05/07 09:37:12;;;;;;;13.27;10.18;;;19.00;83.90;;;;;;5051513;28;20025;-69
2023/05/07 09:39:45;;;;;;;11.95;10.40;;;19.20;83.40;;;;;;5044661;28;20533;-70
2023/05/07 09:42:12;;;;;;;10.57;9.07;;;19.30;82.90;;;;;;5051238;28;20458;-69
2023/05/07 09:44:38;;;;;;;10.40;9.27;;;19.30;82.40;;;;;;5051450;28;20029;-70
2023/05/07 09:47:08;;;;;;;11.95;8.90;;;19.40;82.00;;;;;;5051322;28;20017;-70
2023/05/07 09:49:36;;;;;;;9.48;8.13;;;19.60;81.70;;;;;;5050237;28;20468;-69
2023/05/07 09:52:06;;;;;;;10.02;8.85;;;19.80;81.20;;;;;;5051067;28;20096;-69
2023/05/07 09:54:33;;;;;;;10.85;8.98;;;19.90;80.40;;;;;;5051007;28;20021;-71
2023/05/07 09:57:02;;;;;;;12.27;10.35;;;19.90;79.40;;;;;;5050342;28;20013;-66
2023/05/07 09:59:29;;;;;;;9.60;8.60;;;19.80;78.90;;;;;;5050881;28;20025;-67
2023/05/07 10:01:58;;;;;;;11.63;9.68;;;19.90;78.70;;;;;;5051503;28;20029;-66
2023/05/07 10:04:26;;;;;;;12.80;9.43;;;19.90;78.10;;;;;;5051463;28;20104;-67
2023/05/07 10:06:53;;;;;;;11.18;9.95;;;19.90;77.20;;;;;;5051058;28;20428;-67
2023/05/07 10:09:19;;;;;;;10.93;8.90;;;19.90;77.30;;;;;;5051447;28;20036;-69
2023/05/07 10:11:45;;;;;;;10.40;8.88;;;20.00;77.70;;;;;;5051092;28;20071;-68
2023/05/07 10:14:12;;;;;;;9.73;8.07;;;20.20;77.80;;;;;;5051019;28;20025;-67
2023/05/07 10:16:37;;;;;;;9.02;7.78;;;20.30;76.70;;;;;;5050511;28;20017;-69
2023/05/07 10:19:07;;;;;;;11.15;9.98;;;20.40;76.60;;;;;;5050468;28;20554;-69
2023/05/07 10:21:36;;;;;;;10.27;8.27;;;20.40;74.80;;;;;;5050695;28;20032;-68
2023/05/07 10:24:13;;;;;;;11.90;10.25;;;20.50;75.30;;;;;;5050603;28;20036;-67
2023/05/07 10:26:42;;;;;;;9.70;7.93;;;20.40;73.80;;;;;;5050540;28;20045;-68
2023/05/07 10:29:17;;;;;;;8.73;7.80;;;20.40;74.30;;;;;;5050924;28;20471;-68
2023/05/07 10:31:57;;;;;;;9.77;8.55;;;20.50;74.40;;;;;;5049522;28;20036;-68
2023/05/07 10:34:47;;;;;;;8.98;8.07;;;20.70;74.60;;;;;;5050532;28;20134;-68
2023/05/07 10:37:13;;;;;;;11.35;10.13;;;20.90;74.10;;;;;;5050309;28;20404;-69
2023/05/07 10:39:39;;;;;;;12.20;9.75;;;21.10;72.90;;;;;;5049769;28;20555;-67
2023/05/07 10:42:09;;;;;;;10.40;8.60;;;20.90;72.30;;;;;;5046540;28;20148;-69
2023/05/07 10:44:35;;;;;;;8.50;7.50;;;21.10;72.10;;;;;;5050114;28;20028;-68
2023/05/07 10:47:08;;;;;;;10.93;9.77;;;21.20;72.10;;;;;;5049958;28;20024;-67
2023/05/07 10:49:55;;;;;;;11.05;9.15;;;21.40;71.40;;;;;;5049466;28;20325;-68
2023/05/07 10:52:24;;;;;;;9.63;8.63;;;21.40;71.20;;;;;;5035491;28;20086;-69
2023/05/07 10:55:17;;;;;;;7.43;6.55;;;21.50;70.10;;;;;;5050091;28;20032;-68
2023/05/07 10:57:42;;;;;;;10.50;8.13;;;21.60;70.60;;;;;;5049668;28;20025;-68
2023/05/07 11:00:23;;;;;;;7.68;6.93;;;21.70;69.50;;;;;;5050011;28;20081;-68
2023/05/07 11:03:00;;;;;;;9.90;8.15;;;22.00;69.50;;;;;;5050443;28;20104;-68
2023/05/07 11:05:30;;;;;;;10.75;8.65;;;22.20;68.90;;;;;;5050258;28;20446;-68
2023/05/07 11:07:56;;;;;;;8.40;7.28;;;22.10;67.20;;;;;;5036107;28;20025;-69
2023/05/07 11:10:22;;;;;;;8.73;7.72;;;22.10;67.60;;;;;;5049117;28;20032;-67
2023/05/07 11:12:51;;;;;;;9.05;8.15;;;22.20;67.40;;;;;;5050073;28;20503;-68
2023/05/07 11:15:34;;;;;;;9.38;7.50;;;22.20;67.60;;;;;;5041473;28;20025;-68
2023/05/07 11:18:00;;;;;;;8.90;6.80;;;22.30;66.30;;;;;;5050108;28;20021;-67
2023/05/07 11:20:54;;;;;;;9.10;8.05;;;22.40;67.20;;;;;;5049291;28;20028;-67
2023/05/07 11:23:35;;;;;;;8.57;7.50;;;22.20;65.70;;;;;;5049727;28;20029;-68
2023/05/07 11:26:04;;;;;;;9.05;6.65;;;22.30;66.20;;;;;;5049861;28;20035;-67
2023/05/07 11:28:31;;;;;;;7.72;6.30;;;22.30;66.00;;;;;;5049011;28;20021;-67
2023/05/07 11:30:57;;;;;;;11.38;9.00;;;22.50;66.50;;;;;;5049796;28;20108;-67
2023/05/07 11:33:26;;;;;;;8.35;7.05;;;22.50;65.70;;;;;;5050270;28;20021;-67
2023/05/07 11:35:55;;;;;;;9.77;7.45;;;22.50;66.00;;;;;;5049681;28;20022;-67
2023/05/07 11:38:21;;;;;;;10.15;8.23;;;22.60;65.70;;;;;;5049613;28;20053;-70
2023/05/07 11:40:51;;;;;;;7.13;6.25;;;22.60;65.30;;;;;;5049688;28;20104;-68
2023/05/07 11:43:16;;;;;;;8.20;7.40;;;22.70;65.80;;;;;;5049737;28;20036;-68
2023/05/07 11:45:42;;;;;;;9.10;7.15;;;22.80;65.60;;;;;;5049804;28;20029;-68
2023/05/07 11:48:07;;;;;;;8.77;7.70;;;22.80;65.40;;;;;;5048601;28;20095;-67
2023/05/07 11:50:33;;;;;;;9.73;8.40;;;22.70;65.00;;;;;;5049994;28;20112;-68
2023/05/07 11:52:58;;;;;;;9.82;7.88;;;22.70;64.90;;;;;;5049421;28;20013;-68
2023/05/07 11:55:25;;;;;;;7.60;6.80;;;22.60;64.80;;;;;;5049142;28;20025;-68
2023/05/07 11:57:51;;;;;;;8.43;6.80;;;22.80;65.20;;;;;;5039828;28;20017;-68
2023/05/07 12:00:17;;;;;;;10.82;8.88;;;22.90;65.00;;;;;;5049653;28;20078;-68
2023/05/07 12:02:45;;;;;;;8.95;8.05;;;22.80;64.00;;;;;;5049896;28;20029;-68
2023/05/07 12:05:10;;;;;;;9.48;8.48;;;22.70;64.30;;;;;;5048886;28;20105;-68
2023/05/07 12:07:36;;;;;;;8.00;6.35;;;22.60;64.30;;;;;;5049298;28;20486;-68
2023/05/07 12:10:06;;;;;;;7.40;6.70;;;22.60;64.70;;;;;;5047577;28;20037;-67
2023/05/07 12:12:41;;;;;;;7.80;6.85;;;22.60;64.80;;;;;;5049085;28;20025;-68
2023/05/07 12:15:08;;;;;;;9.75;8.57;;;22.70;64.60;;;;;;5031599;28;20025;-67
2023/05/07 12:17:33;;;;;;;8.35;7.45;;;22.60;63.80;;;;;;5049500;28;20040;-67
2023/05/07 12:19:59;;;;;;;8.15;6.90;;;22.50;64.40;;;;;;5048507;28;20480;-67
2023/05/07 12:22:25;;;;;;;7.28;6.50;;;22.60;64.60;;;;;;5052573;28;20521;-66
2023/05/07 12:24:58;;;;;;;7.47;6.65;;;22.70;64.50;;;;;;5052683;28;20048;-68
2023/05/07 12:27:23;;;;;;;6.57;5.78;;;22.90;64.20;;;;;;5052808;28;20048;-67
2023/05/07 12:29:50;;;;;;;6.55;5.53;;;23.00;63.90;;;;;;5052059;28;20033;-68
2023/05/07 12:32:25;;;;;;;7.78;6.63;;;23.20;64.00;;;;;;5052805;28;20025;-67